sensor_id;sensor_type;location;lat;lon;timestamp;temperature;humidity
5775;DHT22;2913;51.120;6.772;2023-02-28T00:01:27;1.50;99.90
5775;DHT22;2913;51.120;6.772;2023-02-28T00:03:54;1.50;99.90
5775;DHT22;2913;51.120;6.772;2023-02-28T00:06:23;1.50;99.90
5775;DHT22;2913;51.120;6.772;2023-02-28T00:08:51;1.50;99.90
5775;DHT22;2913;51.120;6.772;2023-02-28T00:11:17;1.40;99.90
5775;DHT22;2913;51.120;6.772;2023-02-28T00:13:45;1.40;99.90
5775;DHT22;2913;51.120;6.772;2023-02-28T00:16:20;1.40;99.90
5775;DHT22;2913;51.120;6.772;2023-02-28T00:18:46;1.40;99.90
5775;DHT22;2913;51.120;6.772;2023-02-28T00:21:12;1.30;99.90
5775;DHT22;2913;51.120;6.772;2023-02-28T00:23:38;1.20;99.90
5775;DHT22;2913;51.120;6.772;2023-02-28T00:26:04;1.20;99.90
5775;DHT22;2913;51.120;6.772;2023-02-28T00:28:30;1.20;99.90
5775;DHT22;2913;51.120;6.772;2023-02-28T00:30:56;1.20;99.90
5775;DHT22;2913;51.120;6.772;2023-02-28T00:33:25;1.20;99.90
5775;DHT22;2913;51.120;6.772;2023-02-28T00:35:51;1.30;99.90
5775;DHT22;2913;51.120;6.772;2023-02-28T00:38:16;1.20;99.90
5775;DHT22;2913;51.120;6.772;2023-02-28T00:40:42;1.10;99.90
5775;DHT22;2913;51.120;6.772;2023-02-28T00:43:10;1.10;99.90
5775;DHT22;2913;51.120;6.772;2023-02-28T00:45:36;1.20;99.90
5775;DHT22;2913;51.120;6.772;2023-02-28T00:48:01;1.20;99.90
5775;DHT22;2913;51.120;6.772;2023-02-28T00:50:27;1.10;99.90
5775;DHT22;2913;51.120;6.772;2023-02-28T00:52:55;1.10;99.90
5775;DHT22;2913;51.120;6.772;2023-02-28T00:55:20;1.10;99.90
5775;DHT22;2913;51.120;6.772;2023-02-28T00:57:46;1.10;99.90
5775;DHT22;2913;51.120;6.772;2023-02-28T01:00:14;1.10;99.90
5775;DHT22;2913;51.120;6.772;2023-02-28T01:02:40;1.10;99.90
5775;DHT22;2913;51.120;6.772;2023-02-28T01:05:06;1.10;99.90
5775;DHT22;2913;51.120;6.772;2023-02-28T01:07:34;1.10;99.90
5775;DHT22;2913;51.120;6.772;2023-02-28T01:10:00;1.00;99.90
5775;DHT22;2913;51.120;6.772;2023-02-28T01:12:25;1.00;99.90
5775;DHT22;2913;51.120;6.772;2023-02-28T01:14:51;0.90;99.90
5775;DHT22;2913;51.120;6.772;2023-02-28T01:17:17;0.90;99.90
5775;DHT22;2913;51.120;6.772;2023-02-28T01:19:44;1.00;99.90
5775;DHT22;2913;51.120;6.772;2023-02-28T01:22:12;1.00;99.90
5775;DHT22;2913;51.120;6.772;2023-02-28T01:24:38;0.90;99.90
5775;DHT22;2913;51.120;6.772;2023-02-28T01:27:03;0.90;99.90
5775;DHT22;2913;51.120;6.772;2023-02-28T01:29:34;0.90;99.90
5775;DHT22;2913;51.120;6.772;2023-02-28T01:31:59;0.90;99.90
5775;DHT22;2913;51.120;6.772;2023-02-28T01:34:25;0.80;99.90
5775;DHT22;2913;51.120;6.772;2023-02-28T01:36:50;0.90;99.90
5775;DHT22;2913;51.120;6.772;2023-02-28T01:39:16;0.80;99.90
5775;DHT22;2913;51.120;6.772;2023-02-28T01:41:42;0.80;99.90
5775;DHT22;2913;51.120;6.772;2023-02-28T01:47:11;0.80;99.90
5775;DHT22;2913;51.120;6.772;2023-02-28T01:49:37;0.80;99.90
5775;DHT22;2913;51.120;6.772;2023-02-28T01:52:03;0.80;99.90
5775;DHT22;2913;51.120;6.772;2023-02-28T01:54:31;0.80;99.90
5775;DHT22;2913;51.120;6.772;2023-02-28T01:57:09;0.80;99.90
5775;DHT22;2913;51.120;6.772;2023-02-28T01:59:44;0.80;99.90
5775;DHT22;2913;51.120;6.772;2023-02-28T02:02:15;0.80;99.90
5775;DHT22;2913;51.120;6.772;2023-02-28T02:05:06;0.80;99.90
5775;DHT22;2913;51.120;6.772;2023-02-28T02:07:36;0.80;99.90
5775;DHT22;2913;51.120;6.772;2023-02-28T02:27:26;0.70;99.90
5775;DHT22;2913;51.120;6.772;2023-02-28T02:32:48;0.70;99.90
5775;DHT22;2913;51.120;6.772;2023-02-28T02:35:43;0.60;99.90
5775;DHT22;2913;51.120;6.772;2023-02-28T02:38:38;0.70;99.90
5775;DHT22;2913;51.120;6.772;2023-02-28T02:43:49;0.60;99.90
5775;DHT22;2913;51.120;6.772;2023-02-28T02:46:24;0.50;99.90
5775;DHT22;2913;51.120;6.772;2023-02-28T02:48:53;0.50;99.90
5775;DHT22;2913;51.120;6.772;2023-02-28T02:51:22;0.50;99.90
5775;DHT22;2913;51.120;6.772;2023-02-28T02:53:49;0.50;99.90
5775;DHT22;2913;51.120;6.772;2023-02-28T02:56:22;0.50;99.90
5775;DHT22;2913;51.120;6.772;2023-02-28T02:58:53;0.50;99.90
5775;DHT22;2913;51.120;6.772;2023-02-28T03:01:24;0.40;99.90
5775;DHT22;2913;51.120;6.772;2023-02-28T03:04:05;0.40;99.90
5775;DHT22;2913;51.120;6.772;2023-02-28T03:06:34;0.30;99.90
5775;DHT22;2913;51.120;6.772;2023-02-28T03:09:00;0.30;99.90
5775;DHT22;2913;51.120;6.772;2023-02-28T03:11:29;0.30;99.90
5775;DHT22;2913;51.120;6.772;2023-02-28T03:14:09;0.30;99.90
5775;DHT22;2913;51.120;6.772;2023-02-28T03:27:42;0.40;99.90
5775;DHT22;2913;51.120;6.772;2023-02-28T03:35:34;0.10;99.90
5775;DHT22;2913;51.120;6.772;2023-02-28T03:38:11;0.00;99.90
5775;DHT22;2913;51.120;6.772;2023-02-28T03:40:43;-0.10;99.90
5775;DHT22;2913;51.120;6.772;2023-02-28T03:43:14;0.20;99.90
5775;DHT22;2913;51.120;6.772;2023-02-28T03:45:43;0.00;99.90
5775;DHT22;2913;51.120;6.772;2023-02-28T03:48:44;0.00;99.90
5775;DHT22;2913;51.120;6.772;2023-02-28T03:51:15;0.00;99.90
5775;DHT22;2913;51.120;6.772;2023-02-28T03:53:49;0.00;99.90
5775;DHT22;2913;51.120;6.772;2023-02-28T03:56:34;0.00;99.90
5775;DHT22;2913;51.120;6.772;2023-02-28T03:59:23;0.00;99.90
5775;DHT22;2913;51.120;6.772;2023-02-28T04:01:59;0.00;99.90
5775;DHT22;2913;51.120;6.772;2023-02-28T04:04:25;0.00;99.90
5775;DHT22;2913;51.120;6.772;2023-02-28T04:06:52;0.00;99.90
5775;DHT22;2913;51.120;6.772;2023-02-28T04:09:18;0.00;99.90
5775;DHT22;2913;51.120;6.772;2023-02-28T04:11:49;-0.10;99.90
5775;DHT22;2913;51.120;6.772;2023-02-28T04:14:19;0.00;99.90
5775;DHT22;2913;51.120;6.772;2023-02-28T04:16:45;0.00;99.90
5775;DHT22;2913;51.120;6.772;2023-02-28T04:19:12;-0.10;99.90
5775;DHT22;2913;51.120;6.772;2023-02-28T04:21:43;-0.10;99.90
5775;DHT22;2913;51.120;6.772;2023-02-28T04:24:11;-0.10;99.90
5775;DHT22;2913;51.120;6.772;2023-02-28T04:26:40;0.00;99.90
5775;DHT22;2913;51.120;6.772;2023-02-28T04:29:07;0.00;99.90
5775;DHT22;2913;51.120;6.772;2023-02-28T04:31:35;0.00;99.90
5775;DHT22;2913;51.120;6.772;2023-02-28T04:34:01;0.00;99.90
5775;DHT22;2913;51.120;6.772;2023-02-28T04:36:27;0.00;99.90
5775;DHT22;2913;51.120;6.772;2023-02-28T04:38:53;0.00;99.90
5775;DHT22;2913;51.120;6.772;2023-02-28T04:41:19;-0.10;99.90
5775;DHT22;2913;51.120;6.772;2023-02-28T04:43:45;0.00;99.90
5775;DHT22;2913;51.120;6.772;2023-02-28T04:46:10;-0.10;99.90
5775;DHT22;2913;51.120;6.772;2023-02-28T04:48:40;-0.20;99.90
5775;DHT22;2913;51.120;6.772;2023-02-28T04:51:11;-0.10;99.90
5775;DHT22;2913;51.120;6.772;2023-02-28T04:53:40;-0.10;99.90
5775;DHT22;2913;51.120;6.772;2023-02-28T04:56:10;-0.20;99.90
5775;DHT22;2913;51.120;6.772;2023-02-28T04:58:36;-0.20;99.90
5775;DHT22;2913;51.120;6.772;2023-02-28T05:01:18;-0.20;99.90
5775;DHT22;2913;51.120;6.772;2023-02-28T05:03:44;-0.20;99.90
5775;DHT22;2913;51.120;6.772;2023-02-28T05:06:13;-0.20;99.90
5775;DHT22;2913;51.120;6.772;2023-02-28T05:08:41;-0.20;99.90
5775;DHT22;2913;51.120;6.772;2023-02-28T05:11:19;-0.20;99.90
5775;DHT22;2913;51.120;6.772;2023-02-28T05:13:48;-0.20;99.90
5775;DHT22;2913;51.120;6.772;2023-02-28T05:16:14;-0.20;99.90
5775;DHT22;2913;51.120;6.772;2023-02-28T05:18:40;-0.20;99.90
5775;DHT22;2913;51.120;6.772;2023-02-28T05:21:33;-0.20;99.90
5775;DHT22;2913;51.120;6.772;2023-02-28T05:24:02;-0.20;99.90
5775;DHT22;2913;51.120;6.772;2023-02-28T05:26:33;-0.20;99.90
5775;DHT22;2913;51.120;6.772;2023-02-28T05:28:59;-0.20;99.90
5775;DHT22;2913;51.120;6.772;2023-02-28T05:31:27;-0.30;99.90
5775;DHT22;2913;51.120;6.772;2023-02-28T05:33:53;-0.30;99.90
5775;DHT22;2913;51.120;6.772;2023-02-28T05:36:19;-0.30;99.90
5775;DHT22;2913;51.120;6.772;2023-02-28T05:38:47;-0.30;99.90
5775;DHT22;2913;51.120;6.772;2023-02-28T05:41:14;-0.30;99.90
5775;DHT22;2913;51.120;6.772;2023-02-28T05:43:39;-0.30;99.90
5775;DHT22;2913;51.120;6.772;2023-02-28T05:46:07;-0.30;99.90
5775;DHT22;2913;51.120;6.772;2023-02-28T05:48:36;-0.30;99.90
5775;DHT22;2913;51.120;6.772;2023-02-28T05:51:07;-0.30;99.90
5775;DHT22;2913;51.120;6.772;2023-02-28T05:53:33;-0.40;99.90
5775;DHT22;2913;51.120;6.772;2023-02-28T05:56:02;-0.40;99.90
5775;DHT22;2913;51.120;6.772;2023-02-28T05:58:28;-0.50;99.90
5775;DHT22;2913;51.120;6.772;2023-02-28T06:00:57;-0.50;99.90
5775;DHT22;2913;51.120;6.772;2023-02-28T06:03:24;-0.50;99.90
5775;DHT22;2913;51.120;6.772;2023-02-28T06:05:50;-0.50;99.90
5775;DHT22;2913;51.120;6.772;2023-02-28T06:08:18;-0.50;99.90
5775;DHT22;2913;51.120;6.772;2023-02-28T06:10:44;-0.50;99.90
5775;DHT22;2913;51.120;6.772;2023-02-28T06:13:10;-0.60;99.90
5775;DHT22;2913;51.120;6.772;2023-02-28T06:15:38;-0.60;99.90
5775;DHT22;2913;51.120;6.772;2023-02-28T06:18:03;-0.50;99.90
5775;DHT22;2913;51.120;6.772;2023-02-28T06:20:31;-0.60;99.90
5775;DHT22;2913;51.120;6.772;2023-02-28T06:23:02;-0.60;99.90
5775;DHT22;2913;51.120;6.772;2023-02-28T06:25:28;-0.60;99.90
5775;DHT22;2913;51.120;6.772;2023-02-28T06:27:54;-0.50;99.90
5775;DHT22;2913;51.120;6.772;2023-02-28T06:30:22;-0.50;99.90
5775;DHT22;2913;51.120;6.772;2023-02-28T06:32:52;-0.50;99.90
5775;DHT22;2913;51.120;6.772;2023-02-28T06:35:18;-0.50;99.90
5775;DHT22;2913;51.120;6.772;2023-02-28T06:37:43;-0.40;99.90
5775;DHT22;2913;51.120;6.772;2023-02-28T06:40:10;-0.40;99.90
5775;DHT22;2913;51.120;6.772;2023-02-28T06:42:36;-0.40;99.90
5775;DHT22;2913;51.120;6.772;2023-02-28T06:45:02;-0.40;99.90
5775;DHT22;2913;51.120;6.772;2023-02-28T06:47:34;-0.40;99.90
5775;DHT22;2913;51.120;6.772;2023-02-28T06:50:05;-0.40;99.90
5775;DHT22;2913;51.120;6.772;2023-02-28T06:52:34;-0.40;99.90
5775;DHT22;2913;51.120;6.772;2023-02-28T06:55:01;-0.40;99.90
5775;DHT22;2913;51.120;6.772;2023-02-28T06:57:31;-0.30;99.90
5775;DHT22;2913;51.120;6.772;2023-02-28T07:00:02;-0.20;99.90
5775;DHT22;2913;51.120;6.772;2023-02-28T07:02:28;0.00;99.90
5775;DHT22;2913;51.120;6.772;2023-02-28T07:04:54;0.10;99.90
5775;DHT22;2913;51.120;6.772;2023-02-28T07:07:20;0.20;99.90
5775;DHT22;2913;51.120;6.772;2023-02-28T07:09:50;0.40;99.90
5775;DHT22;2913;51.120;6.772;2023-02-28T07:12:16;0.50;99.90
5775;DHT22;2913;51.120;6.772;2023-02-28T07:14:42;0.60;99.90
5775;DHT22;2913;51.120;6.772;2023-02-28T07:17:09;0.70;99.90
5775;DHT22;2913;51.120;6.772;2023-02-28T07:19:36;0.60;99.90
5775;DHT22;2913;51.120;6.772;2023-02-28T07:22:02;0.90;99.90
5775;DHT22;2913;51.120;6.772;2023-02-28T07:24:28;0.90;99.90
5775;DHT22;2913;51.120;6.772;2023-02-28T07:26:55;1.10;99.90
5775;DHT22;2913;51.120;6.772;2023-02-28T07:29:20;1.20;99.90
5775;DHT22;2913;51.120;6.772;2023-02-28T07:31:46;1.20;99.90
5775;DHT22;2913;51.120;6.772;2023-02-28T07:34:12;1.30;99.70
5775;DHT22;2913;51.120;6.772;2023-02-28T07:36:38;1.50;99.20
5775;DHT22;2913;51.120;6.772;2023-02-28T07:39:04;1.60;97.50
5775;DHT22;2913;51.120;6.772;2023-02-28T07:41:30;1.60;96.70
5775;DHT22;2913;51.120;6.772;2023-02-28T07:43:58;1.70;95.90
5775;DHT22;2913;51.120;6.772;2023-02-28T07:46:26;1.80;94.50
5775;DHT22;2913;51.120;6.772;2023-02-28T07:49:00;2.00;94.70
5775;DHT22;2913;51.120;6.772;2023-02-28T07:51:26;2.00;93.50
5775;DHT22;2913;51.120;6.772;2023-02-28T07:53:52;2.10;92.80
5775;DHT22;2913;51.120;6.772;2023-02-28T07:56:17;2.10;91.90
5775;DHT22;2913;51.120;6.772;2023-02-28T07:58:43;2.20;91.60
5775;DHT22;2913;51.120;6.772;2023-02-28T08:01:10;2.40;91.40
5775;DHT22;2913;51.120;6.772;2023-02-28T08:03:37;2.50;90.80
5775;DHT22;2913;51.120;6.772;2023-02-28T08:06:08;2.60;90.10
5775;DHT22;2913;51.120;6.772;2023-02-28T08:08:36;2.70;90.20
5775;DHT22;2913;51.120;6.772;2023-02-28T08:11:03;2.50;88.70
5775;DHT22;2913;51.120;6.772;2023-02-28T08:13:32;2.70;88.10
5775;DHT22;2913;51.120;6.772;2023-02-28T08:15:57;2.70;86.60
5775;DHT22;2913;51.120;6.772;2023-02-28T08:18:23;2.70;85.20
5775;DHT22;2913;51.120;6.772;2023-02-28T08:20:54;3.00;85.10
5775;DHT22;2913;51.120;6.772;2023-02-28T08:23:22;2.70;84.70
5775;DHT22;2913;51.120;6.772;2023-02-28T08:25:56;2.80;83.40
5775;DHT22;2913;51.120;6.772;2023-02-28T08:28:22;2.70;82.00
5775;DHT22;2913;51.120;6.772;2023-02-28T08:30:50;2.80;81.50
5775;DHT22;2913;51.120;6.772;2023-02-28T08:33:20;2.80;80.70
5775;DHT22;2913;51.120;6.772;2023-02-28T08:35:46;2.90;81.10
5775;DHT22;2913;51.120;6.772;2023-02-28T08:38:11;3.00;80.60
5775;DHT22;2913;51.120;6.772;2023-02-28T08:40:37;3.10;78.10
5775;DHT22;2913;51.120;6.772;2023-02-28T08:43:03;3.20;77.50
5775;DHT22;2913;51.120;6.772;2023-02-28T08:45:31;3.10;76.00
5775;DHT22;2913;51.120;6.772;2023-02-28T08:47:56;3.10;73.30
5775;DHT22;2913;51.120;6.772;2023-02-28T08:50:22;3.30;74.80
5775;DHT22;2913;51.120;6.772;2023-02-28T08:52:50;3.30;73.20
5775;DHT22;2913;51.120;6.772;2023-02-28T08:55:18;3.30;72.80
5775;DHT22;2913;51.120;6.772;2023-02-28T08:57:44;3.30;72.10
5775;DHT22;2913;51.120;6.772;2023-02-28T09:00:10;3.30;72.10
5775;DHT22;2913;51.120;6.772;2023-02-28T09:02:39;3.30;70.20
5775;DHT22;2913;51.120;6.772;2023-02-28T09:05:05;3.40;71.30
5775;DHT22;2913;51.120;6.772;2023-02-28T09:07:31;3.40;70.30
5775;DHT22;2913;51.120;6.772;2023-02-28T09:09:57;3.30;69.10
5775;DHT22;2913;51.120;6.772;2023-02-28T09:12:27;3.30;69.40
5775;DHT22;2913;51.120;6.772;2023-02-28T09:14:59;3.40;69.70
5775;DHT22;2913;51.120;6.772;2023-02-28T09:17:27;3.30;69.90
5775;DHT22;2913;51.120;6.772;2023-02-28T09:19:52;3.40;68.70
5775;DHT22;2913;51.120;6.772;2023-02-28T09:22:18;3.60;68.70
5775;DHT22;2913;51.120;6.772;2023-02-28T09:24:44;3.50;67.90
5775;DHT22;2913;51.120;6.772;2023-02-28T09:27:10;3.40;67.30
5775;DHT22;2913;51.120;6.772;2023-02-28T09:29:35;3.60;68.00
5775;DHT22;2913;51.120;6.772;2023-02-28T09:32:01;3.60;67.20
5775;DHT22;2913;51.120;6.772;2023-02-28T09:34:28;3.70;67.50
5775;DHT22;2913;51.120;6.772;2023-02-28T09:36:56;3.80;67.30
5775;DHT22;2913;51.120;6.772;2023-02-28T09:39:22;3.90;66.70
5775;DHT22;2913;51.120;6.772;2023-02-28T09:41:51;3.70;66.00
5775;DHT22;2913;51.120;6.772;2023-02-28T09:44:41;3.80;66.10
5775;DHT22;2913;51.120;6.772;2023-02-28T09:47:32;3.80;65.80
5775;DHT22;2913;51.120;6.772;2023-02-28T09:50:22;3.90;66.80
5775;DHT22;2913;51.120;6.772;2023-02-28T09:52:57;4.00;66.40
5775;DHT22;2913;51.120;6.772;2023-02-28T09:57:54;4.40;67.30
5775;DHT22;2913;51.120;6.772;2023-02-28T10:05:39;4.50;65.60
5775;DHT22;2913;51.120;6.772;2023-02-28T10:08:35;4.50;65.50
5775;DHT22;2913;51.120;6.772;2023-02-28T10:11:02;4.40;65.00
5775;DHT22;2913;51.120;6.772;2023-02-28T10:13:40;4.40;65.40
5775;DHT22;2913;51.120;6.772;2023-02-28T10:16:14;4.30;66.00
5775;DHT22;2913;51.120;6.772;2023-02-28T10:18:48;4.40;65.90
5775;DHT22;2913;51.120;6.772;2023-02-28T10:21:38;4.20;64.70
5775;DHT22;2913;51.120;6.772;2023-02-28T10:26:48;4.10;65.20
5775;DHT22;2913;51.120;6.772;2023-02-28T10:29:14;4.20;66.20
5775;DHT22;2913;51.120;6.772;2023-02-28T10:31:40;4.40;66.00
5775;DHT22;2913;51.120;6.772;2023-02-28T10:34:12;4.40;65.30
5775;DHT22;2913;51.120;6.772;2023-02-28T10:36:38;4.50;65.50
5775;DHT22;2913;51.120;6.772;2023-02-28T10:39:34;4.70;66.00
5775;DHT22;2913;51.120;6.772;2023-02-28T10:42:00;4.70;65.00
5775;DHT22;2913;51.120;6.772;2023-02-28T10:44:28;4.70;65.20
5775;DHT22;2913;51.120;6.772;2023-02-28T10:46:55;4.50;65.30
5775;DHT22;2913;51.120;6.772;2023-02-28T10:49:23;4.40;66.00
5775;DHT22;2913;51.120;6.772;2023-02-28T10:51:55;4.70;66.50
5775;DHT22;2913;51.120;6.772;2023-02-28T10:54:32;4.60;67.00
5775;DHT22;2913;51.120;6.772;2023-02-28T10:57:19;4.50;65.40
5775;DHT22;2913;51.120;6.772;2023-02-28T10:59:45;4.60;65.90
5775;DHT22;2913;51.120;6.772;2023-02-28T11:04:58;4.80;66.10
5775;DHT22;2913;51.120;6.772;2023-02-28T11:07:26;4.80;66.70
5775;DHT22;2913;51.120;6.772;2023-02-28T11:09:57;4.90;66.10
5775;DHT22;2913;51.120;6.772;2023-02-28T11:15:06;4.90;65.90
5775;DHT22;2913;51.120;6.772;2023-02-28T11:17:58;4.70;66.20
5775;DHT22;2913;51.120;6.772;2023-02-28T11:20:28;4.50;66.60
5775;DHT22;2913;51.120;6.772;2023-02-28T11:22:58;4.90;66.90
5775;DHT22;2913;51.120;6.772;2023-02-28T11:25:32;4.90;66.50
5775;DHT22;2913;51.120;6.772;2023-02-28T11:28:04;4.80;66.50
5775;DHT22;2913;51.120;6.772;2023-02-28T11:30:36;4.70;66.50
5775;DHT22;2913;51.120;6.772;2023-02-28T11:35:49;4.60;66.70
5775;DHT22;2913;51.120;6.772;2023-02-28T11:38:15;4.70;66.70
5775;DHT22;2913;51.120;6.772;2023-02-28T11:43:29;4.90;65.80
5775;DHT22;2913;51.120;6.772;2023-02-28T12:01:58;5.30;64.90
5775;DHT22;2913;51.120;6.772;2023-02-28T12:10:29;5.40;65.30
5775;DHT22;2913;51.120;6.772;2023-02-28T12:13:15;5.70;64.70
5775;DHT22;2913;51.120;6.772;2023-02-28T12:21:25;5.70;64.00
5775;DHT22;2913;51.120;6.772;2023-02-28T12:26:43;5.90;65.20
5775;DHT22;2913;51.120;6.772;2023-02-28T12:29:37;6.00;64.60
5775;DHT22;2913;51.120;6.772;2023-02-28T12:32:39;6.00;64.70
5775;DHT22;2913;51.120;6.772;2023-02-28T12:37:43;6.10;62.90
5775;DHT22;2913;51.120;6.772;2023-02-28T12:40:21;6.20;62.80
5775;DHT22;2913;51.120;6.772;2023-02-28T12:42:58;5.70;62.10
5775;DHT22;2913;51.120;6.772;2023-02-28T12:45:31;6.10;64.10
5775;DHT22;2913;51.120;6.772;2023-02-28T12:48:05;6.30;64.00
5775;DHT22;2913;51.120;6.772;2023-02-28T12:50:33;6.00;63.80
5775;DHT22;2913;51.120;6.772;2023-02-28T12:53:17;6.10;62.90
5775;DHT22;2913;51.120;6.772;2023-02-28T12:58:31;6.10;62.10
5775;DHT22;2913;51.120;6.772;2023-02-28T13:09:28;6.20;61.70
5775;DHT22;2913;51.120;6.772;2023-02-28T13:11:55;6.40;61.40
5775;DHT22;2913;51.120;6.772;2023-02-28T13:14:35;6.30;61.60
5775;DHT22;2913;51.120;6.772;2023-02-28T13:22:44;6.50;61.90
5775;DHT22;2913;51.120;6.772;2023-02-28T13:27:54;6.70;61.80
5775;DHT22;2913;51.120;6.772;2023-02-28T13:44:23;6.60;59.90
5775;DHT22;2913;51.120;6.772;2023-02-28T13:52:09;6.60;60.10
5775;DHT22;2913;51.120;6.772;2023-02-28T14:00:07;6.80;59.70
5775;DHT22;2913;51.120;6.772;2023-02-28T14:05:32;6.90;59.70
5775;DHT22;2913;51.120;6.772;2023-02-28T14:08:12;7.10;59.60
5775;DHT22;2913;51.120;6.772;2023-02-28T14:10:53;7.00;59.40
5775;DHT22;2913;51.120;6.772;2023-02-28T14:13:41;7.00;59.10
5775;DHT22;2913;51.120;6.772;2023-02-28T14:16:13;6.90;58.70
5775;DHT22;2913;51.120;6.772;2023-02-28T14:21:27;6.90;59.30
5775;DHT22;2913;51.120;6.772;2023-02-28T14:38:27;7.10;59.30
5775;DHT22;2913;51.120;6.772;2023-02-28T14:40:57;7.00;60.20
5775;DHT22;2913;51.120;6.772;2023-02-28T14:43:26;6.80;61.30
5775;DHT22;2913;51.120;6.772;2023-02-28T14:45:55;6.90;62.10
5775;DHT22;2913;51.120;6.772;2023-02-28T14:48:23;6.90;62.40
5775;DHT22;2913;51.120;6.772;2023-02-28T14:50:55;6.70;63.30
5775;DHT22;2913;51.120;6.772;2023-02-28T14:53:36;7.00;62.60
5775;DHT22;2913;51.120;6.772;2023-02-28T14:56:02;7.00;60.40
5775;DHT22;2913;51.120;6.772;2023-02-28T14:58:34;7.00;62.80
5775;DHT22;2913;51.120;6.772;2023-02-28T15:01:02;6.90;63.60
5775;DHT22;2913;51.120;6.772;2023-02-28T15:03:37;7.00;64.30
5775;DHT22;2913;51.120;6.772;2023-02-28T15:06:14;6.80;63.00
5775;DHT22;2913;51.120;6.772;2023-02-28T15:08:40;6.90;63.20
5775;DHT22;2913;51.120;6.772;2023-02-28T15:11:13;6.90;63.20
5775;DHT22;2913;51.120;6.772;2023-02-28T15:13:43;6.80;63.80
5775;DHT22;2913;51.120;6.772;2023-02-28T15:16:40;6.80;64.40
5775;DHT22;2913;51.120;6.772;2023-02-28T15:19:18;6.70;65.20
5775;DHT22;2913;51.120;6.772;2023-02-28T15:21:51;6.90;66.80
5775;DHT22;2913;51.120;6.772;2023-02-28T15:24:28;6.90;65.90
5775;DHT22;2913;51.120;6.772;2023-02-28T15:26:59;7.00;65.40
5775;DHT22;2913;51.120;6.772;2023-02-28T15:29:29;6.90;62.00
5775;DHT22;2913;51.120;6.772;2023-02-28T15:32:03;6.80;60.60
5775;DHT22;2913;51.120;6.772;2023-02-28T15:37:00;6.80;62.50
5775;DHT22;2913;51.120;6.772;2023-02-28T15:39:28;6.80;64.40
5775;DHT22;2913;51.120;6.772;2023-02-28T15:42:19;6.80;65.80
5775;DHT22;2913;51.120;6.772;2023-02-28T15:44:45;6.70;67.40
5775;DHT22;2913;51.120;6.772;2023-02-28T15:47:25;6.70;67.90
5775;DHT22;2913;51.120;6.772;2023-02-28T15:49:53;6.60;67.10
5775;DHT22;2913;51.120;6.772;2023-02-28T15:52:43;6.30;67.40
5775;DHT22;2913;51.120;6.772;2023-02-28T15:55:20;6.20;68.70
5775;DHT22;2913;51.120;6.772;2023-02-28T15:57:50;6.50;69.00
5775;DHT22;2913;51.120;6.772;2023-02-28T16:00:20;6.50;68.80
5775;DHT22;2913;51.120;6.772;2023-02-28T16:02:47;6.40;68.10
5775;DHT22;2913;51.120;6.772;2023-02-28T16:07:43;6.20;67.60
5775;DHT22;2913;51.120;6.772;2023-02-28T16:10:11;6.20;68.20
5775;DHT22;2913;51.120;6.772;2023-02-28T16:12:40;6.20;68.60
5775;DHT22;2913;51.120;6.772;2023-02-28T16:15:18;5.90;68.40
5775;DHT22;2913;51.120;6.772;2023-02-28T16:17:44;6.00;68.60
5775;DHT22;2913;51.120;6.772;2023-02-28T16:20:17;6.00;69.30
5775;DHT22;2913;51.120;6.772;2023-02-28T16:22:43;5.80;69.10
5775;DHT22;2913;51.120;6.772;2023-02-28T16:25:14;5.90;69.80
5775;DHT22;2913;51.120;6.772;2023-02-28T16:27:42;6.00;70.00
5775;DHT22;2913;51.120;6.772;2023-02-28T16:30:24;6.00;69.60
5775;DHT22;2913;51.120;6.772;2023-02-28T16:32:54;5.90;69.10
5775;DHT22;2913;51.120;6.772;2023-02-28T16:35:21;5.90;69.60
5775;DHT22;2913;51.120;6.772;2023-02-28T16:37:47;5.80;70.20
5775;DHT22;2913;51.120;6.772;2023-02-28T16:40:16;5.80;70.90
5775;DHT22;2913;51.120;6.772;2023-02-28T16:42:42;5.70;71.80
5775;DHT22;2913;51.120;6.772;2023-02-28T16:45:19;5.60;72.60
5775;DHT22;2913;51.120;6.772;2023-02-28T16:47:48;5.60;72.80
5775;DHT22;2913;51.120;6.772;2023-02-28T16:50:19;5.40;72.40
5775;DHT22;2913;51.120;6.772;2023-02-28T16:52:47;5.50;73.00
5775;DHT22;2913;51.120;6.772;2023-02-28T16:55:17;5.40;73.20
5775;DHT22;2913;51.120;6.772;2023-02-28T16:57:49;5.30;73.70
5775;DHT22;2913;51.120;6.772;2023-02-28T17:00:17;5.20;74.40
5775;DHT22;2913;51.120;6.772;2023-02-28T17:02:43;5.20;75.40
5775;DHT22;2913;51.120;6.772;2023-02-28T17:05:11;5.20;75.50
5775;DHT22;2913;51.120;6.772;2023-02-28T17:07:37;5.20;76.00
5775;DHT22;2913;51.120;6.772;2023-02-28T17:10:19;5.10;76.30
5775;DHT22;2913;51.120;6.772;2023-02-28T17:12:45;5.00;76.60
5775;DHT22;2913;51.120;6.772;2023-02-28T17:15:13;4.90;77.00
5775;DHT22;2913;51.120;6.772;2023-02-28T17:17:40;4.80;77.30
5775;DHT22;2913;51.120;6.772;2023-02-28T17:20:10;4.80;77.90
5775;DHT22;2913;51.120;6.772;2023-02-28T17:22:36;4.80;78.00
5775;DHT22;2913;51.120;6.772;2023-02-28T17:25:04;4.70;78.40
5775;DHT22;2913;51.120;6.772;2023-02-28T17:27:30;4.70;78.60
5775;DHT22;2913;51.120;6.772;2023-02-28T17:29:58;4.70;79.00
5775;DHT22;2913;51.120;6.772;2023-02-28T17:32:25;4.70;78.90
5775;DHT22;2913;51.120;6.772;2023-02-28T17:34:51;4.60;78.80
5775;DHT22;2913;51.120;6.772;2023-02-28T17:37:19;4.70;79.10
5775;DHT22;2913;51.120;6.772;2023-02-28T17:39:45;4.60;78.90
5775;DHT22;2913;51.120;6.772;2023-02-28T17:42:12;4.60;79.10
5775;DHT22;2913;51.120;6.772;2023-02-28T17:44:38;4.60;79.50
5775;DHT22;2913;51.120;6.772;2023-02-28T17:47:04;4.60;79.40
5775;DHT22;2913;51.120;6.772;2023-02-28T17:49:29;4.50;79.50
5775;DHT22;2913;51.120;6.772;2023-02-28T17:51:55;4.50;79.60
5775;DHT22;2913;51.120;6.772;2023-02-28T17:54:23;4.40;79.80
5775;DHT22;2913;51.120;6.772;2023-02-28T17:56:51;4.50;80.10
5775;DHT22;2913;51.120;6.772;2023-02-28T17:59:16;4.40;80.40
5775;DHT22;2913;51.120;6.772;2023-02-28T18:01:42;4.40;80.60
5775;DHT22;2913;51.120;6.772;2023-02-28T18:04:10;4.30;81.00
5775;DHT22;2913;51.120;6.772;2023-02-28T18:06:41;4.30;82.10
5775;DHT22;2913;51.120;6.772;2023-02-28T18:09:19;4.20;81.50
5775;DHT22;2913;51.120;6.772;2023-02-28T18:11:49;4.20;82.20
5775;DHT22;2913;51.120;6.772;2023-02-28T18:14:17;4.20;82.40
5775;DHT22;2913;51.120;6.772;2023-02-28T18:16:43;4.10;82.80
5775;DHT22;2913;51.120;6.772;2023-02-28T18:19:10;4.10;83.20
5775;DHT22;2913;51.120;6.772;2023-02-28T18:21:40;4.20;83.50
5775;DHT22;2913;51.120;6.772;2023-02-28T18:24:07;4.10;83.70
5775;DHT22;2913;51.120;6.772;2023-02-28T18:26:33;4.10;83.80
5775;DHT22;2913;51.120;6.772;2023-02-28T18:28:59;4.00;84.30
5775;DHT22;2913;51.120;6.772;2023-02-28T18:31:27;3.90;84.60
5775;DHT22;2913;51.120;6.772;2023-02-28T18:33:52;4.00;85.30
5775;DHT22;2913;51.120;6.772;2023-02-28T18:36:19;4.00;85.60
5775;DHT22;2913;51.120;6.772;2023-02-28T18:38:46;4.00;85.90
5775;DHT22;2913;51.120;6.772;2023-02-28T18:41:12;3.90;86.10
5775;DHT22;2913;51.120;6.772;2023-02-28T18:43:42;3.90;86.40
5775;DHT22;2913;51.120;6.772;2023-02-28T18:46:13;3.80;86.60
5775;DHT22;2913;51.120;6.772;2023-02-28T18:48:42;3.80;86.70
5775;DHT22;2913;51.120;6.772;2023-02-28T18:51:17;3.80;87.20
5775;DHT22;2913;51.120;6.772;2023-02-28T18:53:43;3.70;87.40
5775;DHT22;2913;51.120;6.772;2023-02-28T18:56:11;3.70;87.70
5775;DHT22;2913;51.120;6.772;2023-02-28T18:58:38;3.70;88.10
5775;DHT22;2913;51.120;6.772;2023-02-28T19:01:13;3.70;88.20
5775;DHT22;2913;51.120;6.772;2023-02-28T19:03:39;3.70;88.90
5775;DHT22;2913;51.120;6.772;2023-02-28T19:06:07;3.60;89.30
5775;DHT22;2913;51.120;6.772;2023-02-28T19:08:33;3.70;89.90
5775;DHT22;2913;51.120;6.772;2023-02-28T19:11:01;3.60;90.10
5775;DHT22;2913;51.120;6.772;2023-02-28T19:13:33;3.60;90.50
5775;DHT22;2913;51.120;6.772;2023-02-28T19:16:02;3.60;90.80
5775;DHT22;2913;51.120;6.772;2023-02-28T19:18:30;3.50;90.80